sensor_id;sensor_type;location;lat;lon;timestamp;pressure;altitude;pressure_sealevel;temperature;humidity
45793;BME280;31495;42.740;22.908;2022-12-18T00:00:44;93825.00;;;2.97;100.00
45793;BME280;31495;42.740;22.908;2022-12-18T00:01:44;93815.41;;;2.81;100.00
45793;BME280;31495;42.740;22.908;2022-12-18T00:02:44;93798.53;;;2.70;100.00
45793;BME280;31495;42.740;22.908;2022-12-18T00:03:43;93815.28;;;2.83;100.00
45793;BME280;31495;42.740;22.908;2022-12-18T00:04:43;93812.00;;;2.90;100.00
45793;BME280;31495;42.740;22.908;2022-12-18T00:05:50;93821.75;;;2.95;100.00
45793;BME280;31495;42.740;22.908;2022-12-18T00:06:50;93826.59;;;2.98;100.00
45793;BME280;31495;42.740;22.908;2022-12-18T00:07:49;93819.06;;;2.97;100.00
45793;BME280;31495;42.740;22.908;2022-12-18T00:08:49;93819.28;;;2.85;100.00
45793;BME280;31495;42.740;22.908;2022-12-18T00:09:48;93824.94;;;2.89;100.00
45793;BME280;31495;42.740;22.908;2022-12-18T00:10:48;93805.06;;;2.83;100.00
45793;BME280;31495;42.740;22.908;2022-12-18T00:11:47;93828.56;;;3.04;100.00
45793;BME280;31495;42.740;22.908;2022-12-18T00:12:47;93803.16;;;2.85;100.00
45793;BME280;31495;42.740;22.908;2022-12-18T00:13:47;93841.19;;;3.06;100.00
45793;BME280;31495;42.740;22.908;2022-12-18T00:14:47;93813.00;;;2.98;100.00
45793;BME280;31495;42.740;22.908;2022-12-18T00:15:47;93848.38;;;3.20;100.00
45793;BME280;31495;42.740;22.908;2022-12-18T00:16:46;93803.16;;;2.85;100.00
45793;BME280;31495;42.740;22.908;2022-12-18T00:17:46;93829.81;;;3.00;100.00
45793;BME280;31495;42.740;22.908;2022-12-18T00:18:46;93813.22;;;2.86;100.00
45793;BME280;31495;42.740;22.908;2022-12-18T00:19:46;93854.06;;;3.14;100.00
45793;BME280;31495;42.740;22.908;2022-12-18T00:20:46;93835.00;;;3.08;100.00
45793;BME280;31495;42.740;22.908;2022-12-18T00:21:45;93827.41;;;2.99;100.00
45793;BME280;31495;42.740;22.908;2022-12-18T00:22:44;93853.97;;;3.24;100.00
45793;BME280;31495;42.740;22.908;2022-12-18T00:23:44;93825.50;;;3.01;100.00
45793;BME280;31495;42.740;22.908;2022-12-18T00:24:44;93793.13;;;2.73;100.00
45793;BME280;31495;42.740;22.908;2022-12-18T00:25:44;93813.66;;;3.00;100.00
45793;BME280;31495;42.740;22.908;2022-12-18T00:26:43;93832.00;;;3.13;100.00
45793;BME280;31495;42.740;22.908;2022-12-18T00:27:42;93856.69;;;3.40;100.00
45793;BME280;31495;42.740;22.908;2022-12-18T00:28:43;93821.09;;;3.29;100.00
45793;BME280;31495;42.740;22.908;2022-12-18T00:29:42;93842.13;;;3.41;99.90
45793;BME280;31495;42.740;22.908;2022-12-18T00:30:42;93863.00;;;3.54;99.49
45793;BME280;31495;42.740;22.908;2022-12-18T00:31:41;93859.00;;;3.52;99.05
45793;BME280;31495;42.740;22.908;2022-12-18T00:32:41;93861.50;;;3.43;98.75
45793;BME280;31495;42.740;22.908;2022-12-18T00:33:40;93875.22;;;3.42;98.63
45793;BME280;31495;42.740;22.908;2022-12-18T00:34:40;93858.38;;;3.31;98.70
45793;BME280;31495;42.740;22.908;2022-12-18T00:35:39;93874.59;;;3.40;98.55
45793;BME280;31495;42.740;22.908;2022-12-18T00:36:39;93874.88;;;3.37;98.88
45793;BME280;31495;42.740;22.908;2022-12-18T00:37:39;93881.91;;;3.35;99.27
45793;BME280;31495;42.740;22.908;2022-12-18T00:38:39;93821.25;;;3.09;99.03
45793;BME280;31495;42.740;22.908;2022-12-18T00:39:38;93854.69;;;3.34;98.98
45793;BME280;31495;42.740;22.908;2022-12-18T00:40:38;93824.78;;;3.26;99.09
45793;BME280;31495;42.740;22.908;2022-12-18T00:41:37;93849.06;;;3.48;99.08
45793;BME280;31495;42.740;22.908;2022-12-18T00:42:55;93871.63;;;3.71;98.48
45793;BME280;31495;42.740;22.908;2022-12-18T00:43:55;93866.78;;;3.68;97.93
45793;BME280;31495;42.740;22.908;2022-12-18T00:44:54;93855.41;;;3.62;97.33
45793;BME280;31495;42.740;22.908;2022-12-18T00:45:53;93864.13;;;3.78;97.07
45793;BME280;31495;42.740;22.908;2022-12-18T00:46:53;93859.97;;;3.77;96.87
45793;BME280;31495;42.740;22.908;2022-12-18T00:47:53;93867.75;;;3.93;96.36
45793;BME280;31495;42.740;22.908;2022-12-18T00:48:53;93868.91;;;3.99;96.33
45793;BME280;31495;42.740;22.908;2022-12-18T00:49:52;93871.81;;;4.04;95.96
45793;BME280;31495;42.740;22.908;2022-12-18T00:50:51;93859.75;;;3.96;94.38
45793;BME280;31495;42.740;22.908;2022-12-18T00:51:51;93850.66;;;3.94;94.49
45793;BME280;31495;42.740;22.908;2022-12-18T00:52:51;93853.81;;;3.88;94.47
45793;BME280;31495;42.740;22.908;2022-12-18T00:53:52;93863.75;;;3.91;94.02
45793;BME280;31495;42.740;22.908;2022-12-18T00:54:52;93879.47;;;3.96;93.78
45793;BME280;31495;42.740;22.908;2022-12-18T00:55:51;93886.50;;;3.94;93.83
45793;BME280;31495;42.740;22.908;2022-12-18T00:56:50;93870.16;;;3.68;93.68
45793;BME280;31495;42.740;22.908;2022-12-18T00:57:51;93878.59;;;3.61;94.33
45793;BME280;31495;42.740;22.908;2022-12-18T00:58:51;93884.88;;;3.48;94.93
45793;BME280;31495;42.740;22.908;2022-12-18T00:59:51;93874.28;;;3.43;95.60
45793;BME280;31495;42.740;22.908;2022-12-18T01:00:50;93859.03;;;3.16;95.85
45793;BME280;31495;42.740;22.908;2022-12-18T01:01:49;93879.34;;;3.17;96.77
45793;BME280;31495;42.740;22.908;2022-12-18T01:02:49;93883.94;;;3.13;97.53
45793;BME280;31495;42.740;22.908;2022-12-18T01:03:48;93886.72;;;3.20;97.73
45793;BME280;31495;42.740;22.908;2022-12-18T01:04:48;93877.22;;;3.12;97.67
45793;BME280;31495;42.740;22.908;2022-12-18T01:05:47;93887.38;;;3.22;97.78
45793;BME280;31495;42.740;22.908;2022-12-18T01:06:47;93859.75;;;3.08;97.78
45793;BME280;31495;42.740;22.908;2022-12-18T01:07:46;93862.81;;;3.11;97.39
45793;BME280;31495;42.740;22.908;2022-12-18T01:08:45;93890.94;;;3.29;97.52
45793;BME280;31495;42.740;22.908;2022-12-18T01:09:45;93896.88;;;3.30;97.05
45793;BME280;31495;42.740;22.908;2022-12-18T01:10:44;93882.63;;;3.27;97.15
45793;BME280;31495;42.740;22.908;2022-12-18T01:11:44;93894.69;;;3.17;97.36
45793;BME280;31495;42.740;22.908;2022-12-18T01:12:43;93892.13;;;3.17;97.46
45793;BME280;31495;42.740;22.908;2022-12-18T01:13:43;93885.81;;;3.11;97.41
45793;BME280;31495;42.740;22.908;2022-12-18T01:14:43;93852.22;;;2.88;97.16
45793;BME280;31495;42.740;22.908;2022-12-18T01:15:51;93898.53;;;3.21;97.50
45793;BME280;31495;42.740;22.908;2022-12-18T01:16:51;93901.63;;;3.25;97.42
45793;BME280;31495;42.740;22.908;2022-12-18T01:17:52;93885.94;;;3.02;97.27
45793;BME280;31495;42.740;22.908;2022-12-18T01:18:52;93906.88;;;3.05;97.52
45793;BME280;31495;42.740;22.908;2022-12-18T01:19:53;93898.38;;;3.05;97.72
45793;BME280;31495;42.740;22.908;2022-12-18T01:20:52;93858.34;;;2.78;97.86
45793;BME280;31495;42.740;22.908;2022-12-18T01:21:51;93855.56;;;2.71;97.88
45793;BME280;31495;42.740;22.908;2022-12-18T01:22:51;93890.84;;;2.85;97.88
45793;BME280;31495;42.740;22.908;2022-12-18T01:23:55;93888.81;;;2.89;98.33
45793;BME280;31495;42.740;22.908;2022-12-18T01:24:54;93890.13;;;2.93;98.46
45793;BME280;31495;42.740;22.908;2022-12-18T01:25:54;93905.25;;;2.86;98.36
45793;BME280;31495;42.740;22.908;2022-12-18T01:26:53;93863.28;;;2.61;98.91
45793;BME280;31495;42.740;22.908;2022-12-18T01:27:52;93893.16;;;2.79;99.22
45793;BME280;31495;42.740;22.908;2022-12-18T01:28:54;93897.56;;;2.86;99.13
45793;BME280;31495;42.740;22.908;2022-12-18T01:29:54;93892.31;;;2.88;99.24
45793;BME280;31495;42.740;22.908;2022-12-18T01:30:53;93873.19;;;2.74;98.87
45793;BME280;31495;42.740;22.908;2022-12-18T01:31:55;93860.53;;;2.72;98.73
45793;BME280;31495;42.740;22.908;2022-12-18T01:32:55;93880.88;;;2.92;99.05
45793;BME280;31495;42.740;22.908;2022-12-18T01:33:55;93902.44;;;3.07;98.56
45793;BME280;31495;42.740;22.908;2022-12-18T01:34:54;93904.19;;;3.07;97.54
45793;BME280;31495;42.740;22.908;2022-12-18T01:35:54;93879.81;;;2.85;97.23
45793;BME280;31495;42.740;22.908;2022-12-18T01:36:53;93849.13;;;2.67;97.56
45793;BME280;31495;42.740;22.908;2022-12-18T01:37:56;93916.75;;;3.00;97.35
45793;BME280;31495;42.740;22.908;2022-12-18T01:38:55;93864.59;;;2.65;97.71
45793;BME280;31495;42.740;22.908;2022-12-18T01:39:55;93886.78;;;2.92;97.71
45793;BME280;31495;42.740;22.908;2022-12-18T01:40:58;93855.53;;;2.81;97.82
45793;BME280;31495;42.740;22.908;2022-12-18T01:42:09;93904.78;;;3.19;97.87
45793;BME280;31495;42.740;22.908;2022-12-18T01:43:10;93912.31;;;3.20;96.95
45793;BME280;31495;42.740;22.908;2022-12-18T01:45:47;93900.00;;;2.88;97.10
45793;BME280;31495;42.740;22.908;2022-12-18T01:46:46;93852.06;;;2.44;97.52
45793;BME280;31495;42.740;22.908;2022-12-18T01:47:56;93911.38;;;2.93;97.96
45793;BME280;31495;42.740;22.908;2022-12-18T01:49:00;93916.41;;;2.85;97.89
45793;BME280;31495;42.740;22.908;2022-12-18T01:50:23;93921.72;;;2.74;98.31
45793;BME280;31495;42.740;22.908;2022-12-18T01:51:26;93909.25;;;2.71;98.88
45793;BME280;31495;42.740;22.908;2022-12-18T01:52:29;93916.09;;;2.70;99.19
45793;BME280;31495;42.740;22.908;2022-12-18T01:53:31;93916.66;;;2.64;99.03
45793;BME280;31495;42.740;22.908;2022-12-18T01:54:31;93911.94;;;2.42;99.22
45793;BME280;31495;42.740;22.908;2022-12-18T01:55:36;93912.72;;;2.42;99.31
45793;BME280;31495;42.740;22.908;2022-12-18T01:56:37;93917.56;;;2.45;99.58
45793;BME280;31495;42.740;22.908;2022-12-18T01:57:37;93920.91;;;2.46;99.55
45793;BME280;31495;42.740;22.908;2022-12-18T01:58:44;93919.31;;;2.45;99.71
45793;BME280;31495;42.740;22.908;2022-12-18T01:59:50;93888.75;;;2.25;99.67
45793;BME280;31495;42.740;22.908;2022-12-18T02:00:51;93921.34;;;2.41;99.86
45793;BME280;31495;42.740;22.908;2022-12-18T02:01:51;93898.53;;;2.30;99.94
45793;BME280;31495;42.740;22.908;2022-12-18T02:02:50;93912.91;;;2.31;100.00
45793;BME280;31495;42.740;22.908;2022-12-18T02:03:50;93915.69;;;2.37;100.00
45793;BME280;31495;42.740;22.908;2022-12-18T02:04:50;93891.66;;;2.30;100.00
45793;BME280;31495;42.740;22.908;2022-12-18T02:05:57;93921.69;;;2.56;100.00
45793;BME280;31495;42.740;22.908;2022-12-18T02:07:13;93923.38;;;2.65;100.00
45793;BME280;31495;42.740;22.908;2022-12-18T02:08:27;93921.44;;;2.77;100.00
45793;BME280;31495;42.740;22.908;2022-12-18T02:10:00;93899.38;;;2.76;99.09
45793;BME280;31495;42.740;22.908;2022-12-18T02:12:23;93924.97;;;2.94;98.37
45793;BME280;31495;42.740;22.908;2022-12-18T02:13:32;93929.16;;;3.13;97.51
45793;BME280;31495;42.740;22.908;2022-12-18T02:14:38;93932.75;;;3.20;97.27
45793;BME280;31495;42.740;22.908;2022-12-18T02:15:43;93903.38;;;3.06;97.00
45793;BME280;31495;42.740;22.908;2022-12-18T02:16:52;93923.31;;;3.21;96.45
45793;BME280;31495;42.740;22.908;2022-12-18T02:17:59;93886.88;;;3.01;95.98
45793;BME280;31495;42.740;22.908;2022-12-18T02:19:14;93924.06;;;3.31;95.26
45793;BME280;31495;42.740;22.908;2022-12-18T02:20:23;93935.69;;;3.43;94.51
45793;BME280;31495;42.740;22.908;2022-12-18T02:21:44;93936.25;;;3.37;93.81
45793;BME280;31495;42.740;22.908;2022-12-18T02:23:03;93944.22;;;3.34;93.91
45793;BME280;31495;42.740;22.908;2022-12-18T02:27:16;93936.84;;;3.31;93.85
45793;BME280;31495;42.740;22.908;2022-12-18T02:28:19;93910.00;;;2.99;94.04
45793;BME280;31495;42.740;22.908;2022-12-18T02:29:24;93937.59;;;3.23;94.09
45793;BME280;31495;42.740;22.908;2022-12-18T02:30:29;93946.72;;;3.26;94.31
45793;BME280;31495;42.740;22.908;2022-12-18T02:31:36;93936.75;;;3.23;94.81
45793;BME280;31495;42.740;22.908;2022-12-18T02:32:42;93937.22;;;3.18;94.34
45793;BME280;31495;42.740;22.908;2022-12-18T02:33:44;93929.56;;;3.18;94.07
45793;BME280;31495;42.740;22.908;2022-12-18T02:34:46;93918.13;;;3.12;94.00
45793;BME280;31495;42.740;22.908;2022-12-18T02:35:47;93955.13;;;3.36;94.18
45793;BME280;31495;42.740;22.908;2022-12-18T02:36:48;93934.28;;;3.31;93.75
45793;BME280;31495;42.740;22.908;2022-12-18T02:37:49;93933.34;;;3.32;92.99
45793;BME280;31495;42.740;22.908;2022-12-18T02:38:51;93937.38;;;3.17;92.59
45793;BME280;31495;42.740;22.908;2022-12-18T02:39:53;93956.28;;;3.24;93.56
45793;BME280;31495;42.740;22.908;2022-12-18T02:40:54;93955.56;;;3.31;93.54
45793;BME280;31495;42.740;22.908;2022-12-18T02:41:54;93957.81;;;3.17;93.43
45793;BME280;31495;42.740;22.908;2022-12-18T02:42:54;93934.41;;;3.11;93.29
45793;BME280;31495;42.740;22.908;2022-12-18T02:43:57;93892.59;;;2.85;93.29
45793;BME280;31495;42.740;22.908;2022-12-18T02:44:57;93946.47;;;3.19;93.28
45793;BME280;31495;42.740;22.908;2022-12-18T02:45:58;93918.69;;;3.06;93.17
45793;BME280;31495;42.740;22.908;2022-12-18T02:46:59;93926.38;;;3.06;92.75
45793;BME280;31495;42.740;22.908;2022-12-18T02:47:58;93918.28;;;3.11;92.78
45793;BME280;31495;42.740;22.908;2022-12-18T02:49:05;93919.25;;;3.10;92.94
45793;BME280;31495;42.740;22.908;2022-12-18T02:50:45;93941.38;;;3.19;92.70
45793;BME280;31495;42.740;22.908;2022-12-18T02:53:24;93934.56;;;3.28;93.45
45793;BME280;31495;42.740;22.908;2022-12-18T02:54:31;93941.81;;;3.33;93.50
45793;BME280;31495;42.740;22.908;2022-12-18T02:56:47;93902.13;;;3.10;93.54
45793;BME280;31495;42.740;22.908;2022-12-18T02:58:05;93937.06;;;3.38;93.20
45793;BME280;31495;42.740;22.908;2022-12-18T02:59:13;93938.31;;;3.34;92.70
45793;BME280;31495;42.740;22.908;2022-12-18T03:00:19;93935.41;;;3.28;92.93
45793;BME280;31495;42.740;22.908;2022-12-18T03:01:34;93952.88;;;3.33;92.84
45793;BME280;31495;42.740;22.908;2022-12-18T03:02:48;93921.28;;;3.24;92.52
45793;BME280;31495;42.740;22.908;2022-12-18T03:03:59;93945.56;;;3.38;91.98
45793;BME280;31495;42.740;22.908;2022-12-18T03:05:22;93948.56;;;3.34;91.94
45793;BME280;31495;42.740;22.908;2022-12-18T03:06:36;93909.94;;;3.09;91.68
45793;BME280;31495;42.740;22.908;2022-12-18T03:07:43;93949.13;;;3.27;91.58
45793;BME280;31495;42.740;22.908;2022-12-18T03:08:49;93949.41;;;3.24;91.59
45793;BME280;31495;42.740;22.908;2022-12-18T03:09:52;93933.91;;;3.26;91.45
45793;BME280;31495;42.740;22.908;2022-12-18T03:10:59;93925.00;;;3.12;91.98
45793;BME280;31495;42.740;22.908;2022-12-18T03:12:09;93930.63;;;3.16;91.74
45793;BME280;31495;42.740;22.908;2022-12-18T03:13:27;93924.25;;;3.20;91.71
45793;BME280;31495;42.740;22.908;2022-12-18T03:14:29;93924.72;;;3.15;91.48
45793;BME280;31495;42.740;22.908;2022-12-18T03:15:35;93920.25;;;2.99;91.50
45793;BME280;31495;42.740;22.908;2022-12-18T03:16:36;93958.47;;;3.19;92.27
45793;BME280;31495;42.740;22.908;2022-12-18T03:17:41;93962.88;;;3.26;92.77
45793;BME280;31495;42.740;22.908;2022-12-18T03:18:58;93964.31;;;3.29;92.17
45793;BME280;31495;42.740;22.908;2022-12-18T03:20:04;93966.00;;;3.20;91.68
45793;BME280;31495;42.740;22.908;2022-12-18T03:21:06;93967.31;;;3.24;91.70
45793;BME280;31495;42.740;22.908;2022-12-18T03:22:07;93971.34;;;3.27;91.56
45793;BME280;31495;42.740;22.908;2022-12-18T03:23:10;93962.72;;;3.28;91.43
45793;BME280;31495;42.740;22.908;2022-12-18T03:24:11;93967.75;;;3.38;91.51
45793;BME280;31495;42.740;22.908;2022-12-18T03:25:13;93976.69;;;3.52;91.21
45793;BME280;31495;42.740;22.908;2022-12-18T03:26:16;93980.28;;;3.59;90.85
45793;BME280;31495;42.740;22.908;2022-12-18T03:27:18;93963.31;;;3.22;89.74
45793;BME280;31495;42.740;22.908;2022-12-18T03:28:21;93982.16;;;3.21;90.50
45793;BME280;31495;42.740;22.908;2022-12-18T03:29:28;93982.56;;;3.16;91.27
45793;BME280;31495;42.740;22.908;2022-12-18T03:30:34;93990.00;;;3.09;91.13
45793;BME280;31495;42.740;22.908;2022-12-18T03:31:40;93985.38;;;2.95;91.73
45793;BME280;31495;42.740;22.908;2022-12-18T03:33:45;93987.50;;;3.00;92.29
45793;BME280;31495;42.740;22.908;2022-12-18T03:34:48;93972.63;;;2.85;92.55
45793;BME280;31495;42.740;22.908;2022-12-18T03:35:50;93989.50;;;3.06;92.32
45793;BME280;31495;42.740;22.908;2022-12-18T03:36:49;93986.44;;;3.02;91.92
45793;BME280;31495;42.740;22.908;2022-12-18T03:37:49;93986.94;;;3.06;91.52
45793;BME280;31495;42.740;22.908;2022-12-18T03:38:49;93972.22;;;2.90;91.32
45793;BME280;31495;42.740;22.908;2022-12-18T03:39:49;93996.41;;;2.96;91.41
45793;BME280;31495;42.740;22.908;2022-12-18T03:44:13;94011.38;;;3.18;91.28
45793;BME280;31495;42.740;22.908;2022-12-18T03:45:46;94007.84;;;3.19;90.24
45793;BME280;31495;42.740;22.908;2022-12-18T03:47:14;94014.50;;;3.12;90.05
45793;BME280;31495;42.740;22.908;2022-12-18T03:48:25;94012.22;;;3.09;90.43
45793;BME280;31495;42.740;22.908;2022-12-18T03:49:56;94012.69;;;2.94;90.53
45793;BME280;31495;42.740;22.908;2022-12-18T03:51:05;94006.66;;;2.96;90.70
45793;BME280;31495;42.740;22.908;2022-12-18T03:52:17;94015.47;;;3.01;90.69
45793;BME280;31495;42.740;22.908;2022-12-18T03:53:29;94015.47;;;3.01;90.34
45793;BME280;31495;42.740;22.908;2022-12-18T03:54:33;93986.59;;;2.63;90.34
45793;BME280;31495;42.740;22.908;2022-12-18T03:55:34;93978.81;;;2.55;90.44
45793;BME280;31495;42.740;22.908;2022-12-18T03:56:41;94005.53;;;2.70;90.60
45793;BME280;31495;42.740;22.908;2022-12-18T03:57:44;93970.22;;;2.56;91.12
45793;BME280;31495;42.740;22.908;2022-12-18T03:58:44;94012.59;;;2.86;91.23
45793;BME280;31495;42.740;22.908;2022-12-18T03:59:49;93992.09;;;2.68;91.01
45793;BME280;31495;42.740;22.908;2022-12-18T04:00:52;94023.91;;;2.84;90.67
45793;BME280;31495;42.740;22.908;2022-12-18T04:01:54;94005.63;;;2.79;91.21
45793;BME280;31495;42.740;22.908;2022-12-18T04:02:59;94014.63;;;2.83;91.17
45793;BME280;31495;42.740;22.908;2022-12-18T04:04:01;93995.41;;;2.79;91.53
45793;BME280;31495;42.740;22.908;2022-12-18T04:05:04;93985.47;;;2.75;91.70
45793;BME280;31495;42.740;22.908;2022-12-18T04:06:05;93988.69;;;2.78;91.76
45793;BME280;31495;42.740;22.908;2022-12-18T04:07:06;93996.97;;;2.89;91.57
45793;BME280;31495;42.740;22.908;2022-12-18T04:08:06;94005.50;;;3.08;90.84
45793;BME280;31495;42.740;22.908;2022-12-18T04:09:06;94009.91;;;3.16;89.77
45793;BME280;31495;42.740;22.908;2022-12-18T04:10:07;94022.50;;;2.99;89.82
45793;BME280;31495;42.740;22.908;2022-12-18T04:11:08;94019.72;;;2.92;90.15
45793;BME280;31495;42.740;22.908;2022-12-18T04:12:08;94020.22;;;2.96;90.11
45793;BME280;31495;42.740;22.908;2022-12-18T04:13:08;93974.56;;;2.73;89.84
45793;BME280;31495;42.740;22.908;2022-12-18T04:14:08;94030.38;;;3.16;89.91
45793;BME280;31495;42.740;22.908;2022-12-18T04:15:08;94031.97;;;3.17;89.35
45793;BME280;31495;42.740;22.908;2022-12-18T04:16:08;94013.31;;;3.06;89.15
45793;BME280;31495;42.740;22.908;2022-12-18T04:17:08;93985.41;;;2.85;88.92
45793;BME280;31495;42.740;22.908;2022-12-18T04:18:08;93997.50;;;2.93;88.65
45793;BME280;31495;42.740;22.908;2022-12-18T04:19:07;94017.34;;;3.09;89.13
45793;BME280;31495;42.740;22.908;2022-12-18T04:20:07;94018.22;;;2.90;89.34
45793;BME280;31495;42.740;22.908;2022-12-18T04:21:06;94029.59;;;2.78;89.94
45793;BME280;31495;42.740;22.908;2022-12-18T04:22:06;94027.53;;;2.81;90.42
45793;BME280;31495;42.740;22.908;2022-12-18T04:23:05;94032.38;;;2.84;90.54
45793;BME280;31495;42.740;22.908;2022-12-18T04:24:05;94003.94;;;2.69;90.36
45793;BME280;31495;42.740;22.908;2022-12-18T04:25:05;94031.41;;;2.85;90.55
45793;BME280;31495;42.740;22.908;2022-12-18T04:26:04;94020.13;;;2.88;90.46
45793;BME280;31495;42.740;22.908;2022-12-18T04:27:04;94025.72;;;3.01;90.60
45793;BME280;31495;42.740;22.908;2022-12-18T04:28:04;94030.91;;;3.09;90.26
45793;BME280;31495;42.740;22.908;2022-12-18T04:29:04;94026.72;;;3.18;89.64
45793;BME280;31495;42.740;22.908;2022-12-18T04:30:04;93973.31;;;2.87;89.49
45793;BME280;31495;42.740;22.908;2022-12-18T04:31:03;93996.38;;;3.05;89.38
45793;BME280;31495;42.740;22.908;2022-12-18T04:32:03;94022.13;;;3.22;89.44
45793;BME280;31495;42.740;22.908;2022-12-18T04:33:03;94013.84;;;3.10;87.98
45793;BME280;31495;42.740;22.908;2022-12-18T04:34:03;94027.81;;;3.16;88.04
45793;BME280;31495;42.740;22.908;2022-12-18T04:35:03;94038.63;;;3.27;88.38
45793;BME280;31495;42.740;22.908;2022-12-18T04:36:03;94035.47;;;3.16;88.18
45793;BME280;31495;42.740;22.908;2022-12-18T04:37:03;93980.66;;;2.72;88.46
45793;BME280;31495;42.740;22.908;2022-12-18T04:38:03;94004.00;;;2.87;88.67
45793;BME280;31495;42.740;22.908;2022-12-18T04:39:02;94026.47;;;3.11;89.00
45793;BME280;31495;42.740;22.908;2022-12-18T04:40:02;94044.31;;;3.21;89.09
45793;BME280;31495;42.740;22.908;2022-12-18T04:41:02;94054.63;;;3.29;89.01
45793;BME280;31495;42.740;22.908;2022-12-18T04:42:02;94054.63;;;3.29;88.27
45793;BME280;31495;42.740;22.908;2022-12-18T04:43:02;94005.03;;;2.94;87.41
45793;BME280;31495;42.740;22.908;2022-12-18T04:44:01;94025.34;;;2.96;87.83
45793;BME280;31495;42.740;22.908;2022-12-18T04:45:01;94056.50;;;3.09;87.82
45793;BME280;31495;42.740;22.908;2022-12-18T04:46:06;94030.59;;;2.94;88.28
45793;BME280;31495;42.740;22.908;2022-12-18T04:47:06;94040.28;;;2.91;87.84
45793;BME280;31495;42.740;22.908;2022-12-18T04:48:06;94033.97;;;2.85;88.62
45793;BME280;31495;42.740;22.908;2022-12-18T04:49:06;94016.81;;;2.78;89.50
45793;BME280;31495;42.740;22.908;2022-12-18T04:50:06;94047.94;;;3.01;89.60
45793;BME280;31495;42.740;22.908;2022-12-18T04:51:06;94047.50;;;3.05;89.13
45793;BME280;31495;42.740;22.908;2022-12-18T04:52:05;94061.97;;;3.15;88.92
45793;BME280;31495;42.740;22.908;2022-12-18T04:53:05;94038.25;;;2.94;87.62
45793;BME280;31495;42.740;22.908;2022-12-18T04:54:04;94062.44;;;3.10;87.84
45793;BME280;31495;42.740;22.908;2022-12-18T04:55:04;94033.84;;;2.87;87.34
45793;BME280;31495;42.740;22.908;2022-12-18T04:56:08;94042.63;;;2.74;87.40
45793;BME280;31495;42.740;22.908;2022-12-18T04:57:08;94074.59;;;2.88;88.07
45793;BME280;31495;42.740;22.908;2022-12-18T04:58:08;94041.97;;;2.72;88.75
45793;BME280;31495;42.740;22.908;2022-12-18T04:59:07;94053.66;;;2.75;88.42
45793;BME280;31495;42.740;22.908;2022-12-18T05:00:07;94056.50;;;2.72;87.72
45793;BME280;31495;42.740;22.908;2022-12-18T05:01:07;94072.75;;;2.81;88.31
45793;BME280;31495;42.740;22.908;2022-12-18T05:02:07;94048.47;;;2.57;87.98
45793;BME280;31495;42.740;22.908;2022-12-18T05:03:06;94077.53;;;2.56;88.50
45793;BME280;31495;42.740;22.908;2022-12-18T05:04:06;94064.50;;;2.49;88.34
45793;BME280;31495;42.740;22.908;2022-12-18T05:05:06;94041.09;;;2.34;88.66
45793;BME280;31495;42.740;22.908;2022-12-18T05:06:06;94090.16;;;2.57;88.58
45793;BME280;31495;42.740;22.908;2022-12-18T05:07:06;94065.47;;;2.29;88.55
45793;BME280;31495;42.740;22.908;2022-12-18T05:08:05;94092.72;;;2.48;89.07
45793;BME280;31495;42.740;22.908;2022-12-18T05:09:05;94095.69;;;2.43;89.40
45793;BME280;31495;42.740;22.908;2022-12-18T05:10:05;94088.69;;;2.35;89.44
45793;BME280;31495;42.740;22.908;2022-12-18T05:11:06;94095.03;;;2.41;89.39
45793;BME280;31495;42.740;22.908;2022-12-18T05:12:06;94106.72;;;2.34;89.69
45793;BME280;31495;42.740;22.908;2022-12-18T05:13:05;94111.44;;;2.19;90.26
45793;BME280;31495;42.740;22.908;2022-12-18T05:14:05;94100.41;;;2.09;90.66
45793;BME280;31495;42.740;22.908;2022-12-18T05:15:04;94110.75;;;2.17;90.88
45793;BME280;31495;42.740;22.908;2022-12-18T05:16:05;94085.34;;;2.15;90.50
45793;BME280;31495;42.740;22.908;2022-12-18T05:17:05;94104.94;;;2.34;90.21
45793;BME280;31495;42.740;22.908;2022-12-18T05:18:04;94113.97;;;2.38;90.02
45793;BME280;31495;42.740;22.908;2022-12-18T05:19:04;94026.00;;;1.84;90.23
45793;BME280;31495;42.740;22.908;2022-12-18T05:20:03;94087.91;;;2.25;89.82
45793;BME280;31495;42.740;22.908;2022-12-18T05:21:03;94116.13;;;2.43;89.45
45793;BME280;31495;42.740;22.908;2022-12-18T05:22:03;94107.09;;;2.39;89.35
45793;BME280;31495;42.740;22.908;2022-12-18T05:23:03;94122.69;;;2.46;89.46
45793;BME280;31495;42.740;22.908;2022-12-18T05:24:02;94114.91;;;2.47;89.28
45793;BME280;31495;42.740;22.908;2022-12-18T05:25:02;94103.63;;;2.30;89.29
45793;BME280;31495;42.740;22.908;2022-12-18T05:26:03;94090.06;;;2.20;89.04
45793;BME280;31495;42.740;22.908;2022-12-18T05:27:03;94127.28;;;2.42;88.81
45793;BME280;31495;42.740;22.908;2022-12-18T05:28:02;94134.94;;;2.42;88.99
45793;BME280;31495;42.740;22.908;2022-12-18T05:29:02;94125.56;;;2.33;89.57
45793;BME280;31495;42.740;22.908;2022-12-18T05:30:02;94138.44;;;2.41;89.64
45793;BME280;31495;42.740;22.908;2022-12-18T05:31:05;94120.84;;;2.18;88.81
45793;BME280;31495;42.740;22.908;2022-12-18T05:32:05;94143.25;;;2.34;88.97
45793;BME280;31495;42.740;22.908;2022-12-18T05:33:04;94152.81;;;2.32;88.95
45793;BME280;31495;42.740;22.908;2022-12-18T05:34:05;94143.56;;;2.22;88.26
45793;BME280;31495;42.740;22.908;2022-12-18T05:35:06;94142.31;;;2.16;88.64
45793;BME280;31495;42.740;22.908;2022-12-18T05:36:07;94091.94;;;1.89;88.85
45793;BME280;31495;42.740;22.908;2022-12-18T05:37:07;94152.69;;;2.24;88.56
45793;BME280;31495;42.740;22.908;2022-12-18T05:38:06;94134.41;;;2.09;88.58
45793;BME280;31495;42.740;22.908;2022-12-18T05:39:06;94106.03;;;1.93;88.60
45793;BME280;31495;42.740;22.908;2022-12-18T05:40:06;94114.75;;;1.90;88.45
45793;BME280;31495;42.740;22.908;2022-12-18T05:41:07;94163.00;;;2.13;88.60
45793;BME280;31495;42.740;22.908;2022-12-18T05:42:07;94157.09;;;2.02;88.73
45793;BME280;31495;42.740;22.908;2022-12-18T05:43:06;94152.09;;;1.91;88.94
45793;BME280;31495;42.740;22.908;2022-12-18T05:44:06;94158.44;;;1.97;88.89